createdAt,value
2022-11-29T00:05:56.046Z,29.441471571906355
2022-11-29T00:17:20.773Z,30.434782608695652
2022-11-29T00:23:48.671Z,30.555183946488295
2022-11-29T00:44:22.305Z,30.391304347826086
2022-11-29T00:54:25.410Z,30.28428093645485
2022-11-29T01:06:44.850Z,29.046822742474916
2022-11-29T01:13:13.898Z,29.244147157190636
2022-11-29T01:25:49.725Z,30.51505016722408
2022-11-29T01:41:15.345Z,31.876254180602007
2022-11-29T01:47:44.363Z,30.59531772575251
2022-11-29T02:00:13.349Z,31.632107023411372
2022-11-29T02:06:44.219Z,30.62541806020067
2022-11-29T02:17:52.410Z,31.096989966555185
2022-11-29T02:26:25.578Z,30.953177257525084
2022-11-29T02:33:00.873Z,31.65886287625418
2022-11-29T02:48:38.902Z,31.267558528428093
2022-11-29T02:55:12.696Z,31.498327759197323
2022-11-29T03:01:42.569Z,31.755852842809364
2022-11-29T03:13:19.318Z,32.04347826086956
2022-11-29T03:20:21.267Z,31.785953177257525
2022-11-29T03:26:53.054Z,32.13377926421405
2022-11-29T03:35:17.906Z,32.31103678929766
2022-11-29T03:44:33.862Z,33.130434782608695
2022-11-29T03:51:36.469Z,32.88628762541806
2022-11-29T04:02:45.302Z,32.51505016722408
2022-11-29T04:11:26.912Z,32.07357859531773
2022-11-29T04:18:43.800Z,32.68896321070234
2022-11-29T04:25:15.361Z,32.585284280936456
2022-11-29T04:33:37.923Z,34.290969899665555
2022-11-29T04:40:07.266Z,34.83946488294314
2022-11-29T04:46:36.132Z,35.130434782608695
2022-11-29T04:53:07.204Z,35.83946488294314
2022-11-29T05:07:14.109Z,32.709030100334445
2022-11-29T05:13:48.424Z,33.558528428093645
2022-11-29T05:20:19.272Z,34.21070234113712
2022-11-29T05:26:51.943Z,35.719063545150505
2022-11-29T05:33:37.941Z,36.16722408026756
2022-11-29T05:44:30.089Z,36.936454849498325
2022-11-29T06:10:34.040Z,39.123745819397996
2022-11-29T06:25:28.500Z,36.27090301003344
2022-11-29T06:32:32.575Z,36.69230769230769
2022-11-29T06:39:01.322Z,34.635451505016725
2022-11-29T06:45:32.565Z,35.17391304347826
2022-11-29T06:58:02.750Z,34.48160535117057
2022-11-29T07:04:33.923Z,35.869565217391305
2022-11-29T07:11:06.770Z,34.60535117056856
2022-11-29T07:17:39.263Z,34.22742474916388
2022-11-29T07:25:48.062Z,33.75585284280937
2022-11-29T07:32:16.575Z,34.591973244147155
2022-11-29T07:38:45.664Z,32.53846153846154
2022-11-29T07:50:49.736Z,31.54180602006689
2022-11-29T07:57:20.995Z,32.86622073578595
2022-11-29T08:03:49.853Z,33.64882943143812
2022-11-29T08:15:23.648Z,32.558528428093645
2022-11-29T08:21:51.333Z,32.31103678929766
2022-11-29T08:28:20.524Z,33.55518394648829
2022-11-29T08:36:07.947Z,33.67224080267559
2022-11-29T08:47:11.183Z,35.40468227424749
2022-11-29T08:59:59.663Z,36.33779264214047
2022-11-29T09:07:40.112Z,34.96321070234114
2022-11-29T09:14:08.526Z,35.290969899665555
2022-11-29T09:20:35.932Z,35.19397993311037
2022-11-29T09:27:03.008Z,36.76254180602007
2022-11-29T09:35:30.832Z,36.26086956521739
2022-11-29T09:43:17.678Z,37.187290969899664
2022-11-29T09:49:47.064Z,36.137123745819395
2022-11-29T09:56:14.955Z,36.508361204013376
2022-11-29T10:02:43.865Z,36.0
2022-11-29T10:09:13.108Z,35.13377926421405
2022-11-29T10:16:08.430Z,35.414715719063544
2022-11-29T10:22:36.929Z,35.12040133779264
2022-11-29T10:29:05.303Z,35.103678929765884
2022-11-29T10:35:33.709Z,36.39464882943144
2022-11-29T10:42:02.320Z,37.414715719063544
2022-11-29T10:54:55.179Z,36.30434782608695
2022-11-29T11:01:23.760Z,37.391304347826086
2022-11-29T11:14:59.789Z,38.66555183946488
2022-11-29T11:27:51.754Z,37.76588628762542
2022-11-29T11:34:20.266Z,36.82943143812709
2022-11-29T11:53:56.498Z,36.78260869565217
2022-11-29T12:05:10.245Z,37.585284280936456
2022-11-29T12:11:38.455Z,38.408026755852845
2022-11-29T12:18:06.031Z,38.68561872909699
2022-11-29T12:24:33.466Z,38.25083612040134
2022-11-29T12:31:00.867Z,37.414715719063544
2022-11-29T12:37:28.588Z,37.792642140468224
2022-11-29T12:43:56.405Z,37.20401337792642
2022-11-29T12:56:49.556Z,38.23411371237458
2022-11-29T13:03:16.979Z,38.37792642140468
2022-11-29T13:09:44.866Z,42.12040133779264
2022-11-29T13:16:17.170Z,40.702341137123746
2022-11-29T13:22:47.838Z,42.42809364548495
2022-11-29T13:29:15.195Z,42.541806020066886
2022-11-29T13:35:42.339Z,42.34448160535117
2022-11-29T13:42:10.283Z,43.43478260869565
2022-11-29T13:49:44.885Z,45.69899665551839
2022-11-29T14:01:51.234Z,46.91304347826087
2022-11-29T14:08:18.841Z,50.23411371237458
2022-11-29T14:25:51.959Z,49.49832775919732
2022-11-29T14:36:15.257Z,48.14046822742475
2022-11-29T14:42:43.931Z,47.68227424749164
2022-11-29T14:49:10.925Z,48.54849498327759
2022-11-29T14:56:59.739Z,48.207357859531776
2022-11-29T15:03:26.861Z,48.53846153846154
2022-11-29T15:09:55.136Z,49.23411371237458
2022-11-29T15:19:53.701Z,48.30100334448161
2022-11-29T15:29:45.450Z,50.34782608695652
2022-11-29T15:36:13.181Z,50.13377926421405
2022-11-29T15:42:41.590Z,48.491638795986624
2022-11-29T15:49:09.216Z,50.0066889632107
2022-11-29T15:55:37.238Z,49.063545150501675
2022-11-29T16:05:42.385Z,51.35451505016722
2022-11-29T16:12:09.458Z,51.575250836120404
2022-11-29T16:18:38.690Z,51.93979933110368
2022-11-29T16:27:54.752Z,51.357859531772576
2022-11-29T16:39:14.936Z,53.42809364548495
2022-11-29T16:55:15.586Z,52.34782608695652
2022-11-29T17:01:43.928Z,54.7123745819398
2022-11-29T17:17:38.180Z,52.331103678929765
2022-11-29T17:26:53.966Z,53.62876254180602
2022-11-29T17:36:38.241Z,55.836120401337794
2022-11-29T17:43:06.749Z,54.87959866220736
2022-11-29T17:49:35.607Z,55.03678929765886
2022-11-29T17:56:02.944Z,55.919732441471574
2022-11-29T18:02:31.728Z,55.468227424749166
2022-11-29T18:09:00.308Z,56.79598662207358
2022-11-29T18:21:55.312Z,58.986622073578594
2022-11-29T18:28:25.560Z,58.16722408026756
2022-11-29T18:34:55.720Z,58.69230769230769
2022-11-29T18:41:23.108Z,59.53511705685619
2022-11-29T18:47:50.186Z,58.04347826086956
2022-11-29T18:54:16.691Z,58.78929765886288
2022-11-29T19:00:43.765Z,57.19397993311037
2022-11-29T19:11:13.496Z,58.09030100334448
2022-11-29T19:17:43.471Z,58.77591973244147
2022-11-29T19:24:11.803Z,57.752508361204015
2022-11-29T19:30:43.587Z,56.896321070234116
2022-11-29T19:37:16.070Z,58.97324414715719
2022-11-29T19:46:34.194Z,56.785953177257525
2022-11-29T19:53:59.389Z,56.68561872909699
2022-11-29T20:06:17.026Z,59.64548494983278
2022-11-29T20:13:38.905Z,59.65886287625418
2022-11-29T20:22:59.396Z,60.04347826086956
2022-11-29T20:29:30.600Z,59.9933110367893
2022-11-29T20:38:33.845Z,60.83946488294314
2022-11-29T20:45:05.732Z,58.8561872909699
2022-11-29T20:51:44.898Z,56.16722408026756
2022-11-29T20:58:28.735Z,56.52842809364549
2022-11-29T21:08:59.588Z,54.40468227424749
2022-11-29T21:15:34.472Z,52.71571906354515
2022-11-29T21:25:18.545Z,50.68896321070234
2022-11-29T21:31:48.248Z,52.82943143812709
2022-11-29T21:38:19.427Z,52.474916387959865
2022-11-29T21:45:15.226Z,50.02341137123746
2022-11-29T21:51:45.239Z,49.82943143812709
2022-11-29T22:01:00.671Z,47.23411371237458
2022-11-29T22:07:31.813Z,48.33779264214047
2022-11-29T22:19:04.060Z,47.07692307692308
2022-11-29T22:25:38.490Z,45.68561872909699
2022-11-29T22:36:23.142Z,46.7123745819398
2022-11-29T22:43:01.281Z,45.919732441471574
2022-11-29T22:53:07.837Z,47.22408026755853
2022-11-29T23:01:04.362Z,47.73913043478261
2022-11-29T23:13:17.592Z,49.67224080267559
2022-11-29T23:19:56.244Z,50.1505016722408
2022-11-29T23:38:14.647Z,48.60200668896321
2022-11-29T23:51:03.916Z,49.25418060200669
2022-11-29T23:57:36.161Z,48.51505016722408
